sensor_id;sensor_type;location;lat;lon;timestamp;temperature;humidity
14473;DHT22;7322;50.872;4.386;2023-04-29T00:01:45;19.70;99.90
14473;DHT22;7322;50.872;4.386;2023-04-29T00:04:13;19.80;99.90
14473;DHT22;7322;50.872;4.386;2023-04-29T00:06:40;19.80;99.90
14473;DHT22;7322;50.872;4.386;2023-04-29T00:09:08;19.80;99.90
14473;DHT22;7322;50.872;4.386;2023-04-29T00:11:35;19.90;99.90
14473;DHT22;7322;50.872;4.386;2023-04-29T00:14:02;19.90;99.90
14473;DHT22;7322;50.872;4.386;2023-04-29T00:16:29;19.90;99.90
14473;DHT22;7322;50.872;4.386;2023-04-29T00:18:56;19.90;99.90
14473;DHT22;7322;50.872;4.386;2023-04-29T00:21:24;19.90;99.90
14473;DHT22;7322;50.872;4.386;2023-04-29T00:23:52;19.80;99.90
14473;DHT22;7322;50.872;4.386;2023-04-29T00:26:20;19.80;99.90
14473;DHT22;7322;50.872;4.386;2023-04-29T00:28:47;19.80;99.90
14473;DHT22;7322;50.872;4.386;2023-04-29T00:31:14;19.80;99.90
14473;DHT22;7322;50.872;4.386;2023-04-29T00:33:41;19.70;99.90
14473;DHT22;7322;50.872;4.386;2023-04-29T00:36:08;19.70;99.90
14473;DHT22;7322;50.872;4.386;2023-04-29T00:38:35;19.60;99.90
14473;DHT22;7322;50.872;4.386;2023-04-29T00:41:02;19.60;99.90
14473;DHT22;7322;50.872;4.386;2023-04-29T00:43:31;19.60;99.90
14473;DHT22;7322;50.872;4.386;2023-04-29T00:45:58;19.60;99.90
14473;DHT22;7322;50.872;4.386;2023-04-29T00:48:25;19.60;99.90
14473;DHT22;7322;50.872;4.386;2023-04-29T00:50:52;19.70;99.90
14473;DHT22;7322;50.872;4.386;2023-04-29T00:53:19;19.70;99.90
14473;DHT22;7322;50.872;4.386;2023-04-29T00:55:48;19.70;99.90
14473;DHT22;7322;50.872;4.386;2023-04-29T00:58:17;19.70;99.90
14473;DHT22;7322;50.872;4.386;2023-04-29T01:00:45;19.70;99.90
14473;DHT22;7322;50.872;4.386;2023-04-29T01:03:15;19.60;99.90
14473;DHT22;7322;50.872;4.386;2023-04-29T01:05:44;19.60;99.90
14473;DHT22;7322;50.872;4.386;2023-04-29T01:08:21;19.60;99.90
14473;DHT22;7322;50.872;4.386;2023-04-29T01:11:00;19.60;99.90
14473;DHT22;7322;50.872;4.386;2023-04-29T01:13:36;19.60;99.90
14473;DHT22;7322;50.872;4.386;2023-04-29T01:16:11;19.60;99.90
14473;DHT22;7322;50.872;4.386;2023-04-29T01:18:45;19.60;99.90
14473;DHT22;7322;50.872;4.386;2023-04-29T01:21:17;19.60;99.90
14473;DHT22;7322;50.872;4.386;2023-04-29T01:23:46;19.60;99.90
14473;DHT22;7322;50.872;4.386;2023-04-29T01:26:18;19.60;99.90
14473;DHT22;7322;50.872;4.386;2023-04-29T01:28:50;19.50;99.90
14473;DHT22;7322;50.872;4.386;2023-04-29T01:31:27;19.60;99.90
14473;DHT22;7322;50.872;4.386;2023-04-29T01:34:07;19.60;99.90
14473;DHT22;7322;50.872;4.386;2023-04-29T01:36:42;19.60;99.90
14473;DHT22;7322;50.872;4.386;2023-04-29T01:39:18;19.50;99.90
14473;DHT22;7322;50.872;4.386;2023-04-29T01:41:52;19.50;99.90
14473;DHT22;7322;50.872;4.386;2023-04-29T01:44:28;19.50;99.90
14473;DHT22;7322;50.872;4.386;2023-04-29T01:46:56;19.50;99.90
14473;DHT22;7322;50.872;4.386;2023-04-29T01:49:24;19.50;99.90
14473;DHT22;7322;50.872;4.386;2023-04-29T01:51:51;19.50;99.90
14473;DHT22;7322;50.872;4.386;2023-04-29T01:54:19;19.60;99.90
14473;DHT22;7322;50.872;4.386;2023-04-29T01:56:47;19.70;99.90
14473;DHT22;7322;50.872;4.386;2023-04-29T01:59:15;19.60;99.90
14473;DHT22;7322;50.872;4.386;2023-04-29T02:01:42;19.60;99.90
14473;DHT22;7322;50.872;4.386;2023-04-29T02:04:09;19.60;99.90
14473;DHT22;7322;50.872;4.386;2023-04-29T02:06:38;19.60;99.90
14473;DHT22;7322;50.872;4.386;2023-04-29T02:09:05;19.70;99.90
14473;DHT22;7322;50.872;4.386;2023-04-29T02:11:45;19.60;99.90
14473;DHT22;7322;50.872;4.386;2023-04-29T02:14:13;19.60;99.90
14473;DHT22;7322;50.872;4.386;2023-04-29T02:16:42;19.60;99.90
14473;DHT22;7322;50.872;4.386;2023-04-29T02:19:09;19.60;99.90
14473;DHT22;7322;50.872;4.386;2023-04-29T02:21:36;19.60;99.90
14473;DHT22;7322;50.872;4.386;2023-04-29T02:24:04;19.50;99.90
14473;DHT22;7322;50.872;4.386;2023-04-29T02:26:31;19.50;99.90
14473;DHT22;7322;50.872;4.386;2023-04-29T02:29:00;19.60;99.90
14473;DHT22;7322;50.872;4.386;2023-04-29T02:31:28;19.60;99.90
14473;DHT22;7322;50.872;4.386;2023-04-29T02:33:55;19.60;99.90
14473;DHT22;7322;50.872;4.386;2023-04-29T02:36:22;19.60;99.90
14473;DHT22;7322;50.872;4.386;2023-04-29T02:38:50;19.60;99.90
14473;DHT22;7322;50.872;4.386;2023-04-29T02:41:19;19.60;99.90
14473;DHT22;7322;50.872;4.386;2023-04-29T02:43:48;19.60;99.90
14473;DHT22;7322;50.872;4.386;2023-04-29T02:46:17;19.60;99.90
14473;DHT22;7322;50.872;4.386;2023-04-29T02:48:44;19.50;99.90
14473;DHT22;7322;50.872;4.386;2023-04-29T02:51:11;19.50;99.90
14473;DHT22;7322;50.872;4.386;2023-04-29T02:53:39;19.50;99.90
14473;DHT22;7322;50.872;4.386;2023-04-29T02:56:06;19.60;99.90
14473;DHT22;7322;50.872;4.386;2023-04-29T02:58:33;19.60;99.90
14473;DHT22;7322;50.872;4.386;2023-04-29T03:01:00;19.60;99.90
14473;DHT22;7322;50.872;4.386;2023-04-29T03:03:29;19.60;99.90
14473;DHT22;7322;50.872;4.386;2023-04-29T03:05:56;19.50;99.90
14473;DHT22;7322;50.872;4.386;2023-04-29T03:08:23;19.50;99.90
14473;DHT22;7322;50.872;4.386;2023-04-29T03:10:51;19.60;99.90
14473;DHT22;7322;50.872;4.386;2023-04-29T03:13:19;19.50;99.90
14473;DHT22;7322;50.872;4.386;2023-04-29T03:15:46;19.60;99.90
14473;DHT22;7322;50.872;4.386;2023-04-29T03:18:13;19.50;99.90
14473;DHT22;7322;50.872;4.386;2023-04-29T03:20:45;19.50;99.90
14473;DHT22;7322;50.872;4.386;2023-04-29T03:23:12;19.60;99.90
14473;DHT22;7322;50.872;4.386;2023-04-29T03:25:39;19.60;99.90
14473;DHT22;7322;50.872;4.386;2023-04-29T03:28:06;19.60;99.90
14473;DHT22;7322;50.872;4.386;2023-04-29T03:30:33;19.60;99.90
14473;DHT22;7322;50.872;4.386;2023-04-29T03:33:01;19.60;99.90
14473;DHT22;7322;50.872;4.386;2023-04-29T03:35:28;19.70;99.90
14473;DHT22;7322;50.872;4.386;2023-04-29T03:37:57;19.70;99.90
14473;DHT22;7322;50.872;4.386;2023-04-29T03:40:25;19.70;99.90
14473;DHT22;7322;50.872;4.386;2023-04-29T03:42:52;19.70;99.90
14473;DHT22;7322;50.872;4.386;2023-04-29T03:45:19;19.60;99.90
14473;DHT22;7322;50.872;4.386;2023-04-29T03:47:46;19.60;99.90
14473;DHT22;7322;50.872;4.386;2023-04-29T03:50:13;19.60;99.90
14473;DHT22;7322;50.872;4.386;2023-04-29T03:52:40;19.50;99.90
14473;DHT22;7322;50.872;4.386;2023-04-29T03:55:09;19.60;99.90
14473;DHT22;7322;50.872;4.386;2023-04-29T03:57:38;19.60;99.90
14473;DHT22;7322;50.872;4.386;2023-04-29T04:00:07;19.60;99.90
14473;DHT22;7322;50.872;4.386;2023-04-29T04:02:34;19.60;99.90
14473;DHT22;7322;50.872;4.386;2023-04-29T04:05:01;19.50;99.90
14473;DHT22;7322;50.872;4.386;2023-04-29T04:07:28;19.60;99.90
14473;DHT22;7322;50.872;4.386;2023-04-29T04:09:55;19.60;99.90
14473;DHT22;7322;50.872;4.386;2023-04-29T04:12:23;19.60;99.90
14473;DHT22;7322;50.872;4.386;2023-04-29T04:14:50;19.60;99.90
14473;DHT22;7322;50.872;4.386;2023-04-29T04:17:18;19.60;99.90
14473;DHT22;7322;50.872;4.386;2023-04-29T04:19:45;19.60;99.90
14473;DHT22;7322;50.872;4.386;2023-04-29T04:22:12;19.60;99.90
14473;DHT22;7322;50.872;4.386;2023-04-29T04:24:41;19.70;99.90
14473;DHT22;7322;50.872;4.386;2023-04-29T04:27:08;19.60;99.90
14473;DHT22;7322;50.872;4.386;2023-04-29T04:29:37;19.60;99.90
14473;DHT22;7322;50.872;4.386;2023-04-29T04:32:04;19.60;99.90
14473;DHT22;7322;50.872;4.386;2023-04-29T04:34:31;19.60;99.90
14473;DHT22;7322;50.872;4.386;2023-04-29T04:36:58;19.50;99.90
14473;DHT22;7322;50.872;4.386;2023-04-29T04:39:26;19.60;99.90
14473;DHT22;7322;50.872;4.386;2023-04-29T04:41:53;19.60;99.90
14473;DHT22;7322;50.872;4.386;2023-04-29T04:44:21;19.60;99.90
14473;DHT22;7322;50.872;4.386;2023-04-29T04:46:50;19.50;99.90
14473;DHT22;7322;50.872;4.386;2023-04-29T04:49:18;19.60;99.90
14473;DHT22;7322;50.872;4.386;2023-04-29T04:51:46;19.60;99.90
14473;DHT22;7322;50.872;4.386;2023-04-29T04:54:13;19.60;99.90
14473;DHT22;7322;50.872;4.386;2023-04-29T04:56:40;19.60;99.90
14473;DHT22;7322;50.872;4.386;2023-04-29T04:59:07;19.60;99.90
14473;DHT22;7322;50.872;4.386;2023-04-29T05:01:34;19.60;99.90
14473;DHT22;7322;50.872;4.386;2023-04-29T05:04:02;19.60;99.90
14473;DHT22;7322;50.872;4.386;2023-04-29T05:06:29;19.60;99.90
14473;DHT22;7322;50.872;4.386;2023-04-29T05:08:56;19.60;99.90
14473;DHT22;7322;50.872;4.386;2023-04-29T05:11:23;19.60;99.90
14473;DHT22;7322;50.872;4.386;2023-04-29T05:13:50;19.70;99.90
14473;DHT22;7322;50.872;4.386;2023-04-29T05:16:17;19.60;99.90
14473;DHT22;7322;50.872;4.386;2023-04-29T05:18:46;19.70;99.90
14473;DHT22;7322;50.872;4.386;2023-04-29T05:21:14;19.60;99.90
14473;DHT22;7322;50.872;4.386;2023-04-29T05:23:41;19.70;99.90
14473;DHT22;7322;50.872;4.386;2023-04-29T05:26:09;19.70;99.90
14473;DHT22;7322;50.872;4.386;2023-04-29T05:28:36;19.60;99.90
14473;DHT22;7322;50.872;4.386;2023-04-29T05:31:03;19.60;99.90
14473;DHT22;7322;50.872;4.386;2023-04-29T05:33:30;19.60;99.90
14473;DHT22;7322;50.872;4.386;2023-04-29T05:35:58;19.60;99.90
14473;DHT22;7322;50.872;4.386;2023-04-29T05:38:27;19.60;99.90
14473;DHT22;7322;50.872;4.386;2023-04-29T05:40:54;19.60;99.90
14473;DHT22;7322;50.872;4.386;2023-04-29T05:43:21;19.60;99.90
14473;DHT22;7322;50.872;4.386;2023-04-29T05:45:48;19.60;99.90
14473;DHT22;7322;50.872;4.386;2023-04-29T05:48:15;19.50;99.90
14473;DHT22;7322;50.872;4.386;2023-04-29T05:50:42;19.50;99.90
14473;DHT22;7322;50.872;4.386;2023-04-29T05:53:10;19.60;99.90
14473;DHT22;7322;50.872;4.386;2023-04-29T05:55:38;19.60;99.90
14473;DHT22;7322;50.872;4.386;2023-04-29T05:58:09;19.60;99.90
14473;DHT22;7322;50.872;4.386;2023-04-29T06:00:36;19.60;99.90
14473;DHT22;7322;50.872;4.386;2023-04-29T06:03:03;19.60;99.90
14473;DHT22;7322;50.872;4.386;2023-04-29T06:05:31;19.50;99.90
14473;DHT22;7322;50.872;4.386;2023-04-29T06:07:59;19.50;99.90
14473;DHT22;7322;50.872;4.386;2023-04-29T06:10:26;19.50;99.90
14473;DHT22;7322;50.872;4.386;2023-04-29T06:12:55;19.50;99.90
14473;DHT22;7322;50.872;4.386;2023-04-29T06:15:22;19.60;99.90
14473;DHT22;7322;50.872;4.386;2023-04-29T06:17:49;19.60;99.90
14473;DHT22;7322;50.872;4.386;2023-04-29T06:20:16;19.60;99.90
14473;DHT22;7322;50.872;4.386;2023-04-29T06:22:44;19.60;99.90
14473;DHT22;7322;50.872;4.386;2023-04-29T06:25:13;19.60;99.90
14473;DHT22;7322;50.872;4.386;2023-04-29T06:27:39;19.60;99.90
14473;DHT22;7322;50.872;4.386;2023-04-29T06:30:09;19.50;99.90
14473;DHT22;7322;50.872;4.386;2023-04-29T06:32:36;19.50;99.90
14473;DHT22;7322;50.872;4.386;2023-04-29T06:35:04;19.50;99.90
14473;DHT22;7322;50.872;4.386;2023-04-29T06:37:31;19.50;99.90
14473;DHT22;7322;50.872;4.386;2023-04-29T06:39:58;19.50;99.90
14473;DHT22;7322;50.872;4.386;2023-04-29T06:42:25;19.50;99.90
14473;DHT22;7322;50.872;4.386;2023-04-29T06:44:52;19.60;99.90
14473;DHT22;7322;50.872;4.386;2023-04-29T06:47:20;19.60;99.90
14473;DHT22;7322;50.872;4.386;2023-04-29T06:49:48;19.60;99.90
14473;DHT22;7322;50.872;4.386;2023-04-29T06:52:15;19.60;99.90
14473;DHT22;7322;50.872;4.386;2023-04-29T06:54:42;19.70;99.90
14473;DHT22;7322;50.872;4.386;2023-04-29T06:57:08;19.60;99.90
14473;DHT22;7322;50.872;4.386;2023-04-29T06:59:35;19.60;99.90
14473;DHT22;7322;50.872;4.386;2023-04-29T07:02:02;19.60;99.90
14473;DHT22;7322;50.872;4.386;2023-04-29T07:04:31;19.60;99.90
14473;DHT22;7322;50.872;4.386;2023-04-29T07:06:58;19.70;99.90
14473;DHT22;7322;50.872;4.386;2023-04-29T07:09:25;19.70;99.90
14473;DHT22;7322;50.872;4.386;2023-04-29T07:11:52;19.70;99.90
14473;DHT22;7322;50.872;4.386;2023-04-29T07:14:20;19.60;99.90
14473;DHT22;7322;50.872;4.386;2023-04-29T07:16:52;19.70;99.90
14473;DHT22;7322;50.872;4.386;2023-04-29T07:19:19;19.70;99.90
14473;DHT22;7322;50.872;4.386;2023-04-29T07:21:47;19.70;99.90
14473;DHT22;7322;50.872;4.386;2023-04-29T07:24:15;19.80;99.90
14473;DHT22;7322;50.872;4.386;2023-04-29T07:26:45;19.80;99.90
14473;DHT22;7322;50.872;4.386;2023-04-29T07:29:23;19.80;99.90
14473;DHT22;7322;50.872;4.386;2023-04-29T07:31:52;19.80;99.90
14473;DHT22;7322;50.872;4.386;2023-04-29T07:34:21;19.80;99.90
14473;DHT22;7322;50.872;4.386;2023-04-29T07:36:54;19.70;99.90
14473;DHT22;7322;50.872;4.386;2023-04-29T07:39:40;19.80;99.90
14473;DHT22;7322;50.872;4.386;2023-04-29T07:42:15;19.80;99.90
14473;DHT22;7322;50.872;4.386;2023-04-29T07:44:42;19.80;99.90
14473;DHT22;7322;50.872;4.386;2023-04-29T07:47:10;19.80;99.90
14473;DHT22;7322;50.872;4.386;2023-04-29T07:49:37;19.80;99.90
14473;DHT22;7322;50.872;4.386;2023-04-29T07:52:16;19.80;99.90
14473;DHT22;7322;50.872;4.386;2023-04-29T07:54:43;19.80;99.90
14473;DHT22;7322;50.872;4.386;2023-04-29T07:57:10;19.80;99.90
14473;DHT22;7322;50.872;4.386;2023-04-29T07:59:37;19.80;99.90
14473;DHT22;7322;50.872;4.386;2023-04-29T08:02:04;19.80;99.90
14473;DHT22;7322;50.872;4.386;2023-04-29T08:04:32;19.90;99.90
14473;DHT22;7322;50.872;4.386;2023-04-29T08:06:59;19.90;99.90
14473;DHT22;7322;50.872;4.386;2023-04-29T08:09:28;19.90;99.90
14473;DHT22;7322;50.872;4.386;2023-04-29T08:11:56;19.90;99.90
14473;DHT22;7322;50.872;4.386;2023-04-29T08:14:23;20.00;99.90
14473;DHT22;7322;50.872;4.386;2023-04-29T08:16:50;20.00;99.90
14473;DHT22;7322;50.872;4.386;2023-04-29T08:19:19;20.00;99.90
14473;DHT22;7322;50.872;4.386;2023-04-29T08:21:46;20.00;99.90
14473;DHT22;7322;50.872;4.386;2023-04-29T08:24:13;20.00;99.90
14473;DHT22;7322;50.872;4.386;2023-04-29T08:26:42;20.00;99.90
14473;DHT22;7322;50.872;4.386;2023-04-29T08:29:09;20.00;99.90
14473;DHT22;7322;50.872;4.386;2023-04-29T08:31:35;20.00;99.90
14473;DHT22;7322;50.872;4.386;2023-04-29T08:34:02;20.00;99.90
14473;DHT22;7322;50.872;4.386;2023-04-29T08:36:30;20.00;99.90
14473;DHT22;7322;50.872;4.386;2023-04-29T08:38:58;20.00;99.90
14473;DHT22;7322;50.872;4.386;2023-04-29T08:41:26;20.00;99.90
14473;DHT22;7322;50.872;4.386;2023-04-29T08:43:54;20.00;99.90
14473;DHT22;7322;50.872;4.386;2023-04-29T08:46:23;20.00;99.90
14473;DHT22;7322;50.872;4.386;2023-04-29T08:48:52;20.00;99.90
14473;DHT22;7322;50.872;4.386;2023-04-29T08:51:21;20.00;99.90
14473;DHT22;7322;50.872;4.386;2023-04-29T08:53:48;20.00;99.90
14473;DHT22;7322;50.872;4.386;2023-04-29T08:56:16;20.00;99.90
14473;DHT22;7322;50.872;4.386;2023-04-29T08:58:45;20.00;99.90
14473;DHT22;7322;50.872;4.386;2023-04-29T09:01:13;20.00;99.90
14473;DHT22;7322;50.872;4.386;2023-04-29T09:03:45;20.00;99.90
14473;DHT22;7322;50.872;4.386;2023-04-29T09:06:15;20.00;99.90
14473;DHT22;7322;50.872;4.386;2023-04-29T09:08:43;20.10;99.90
14473;DHT22;7322;50.872;4.386;2023-04-29T09:11:10;20.00;99.90
14473;DHT22;7322;50.872;4.386;2023-04-29T09:13:38;20.00;99.90
14473;DHT22;7322;50.872;4.386;2023-04-29T09:16:10;20.00;99.90
14473;DHT22;7322;50.872;4.386;2023-04-29T09:18:46;20.00;99.90
14473;DHT22;7322;50.872;4.386;2023-04-29T09:21:15;20.10;99.90
14473;DHT22;7322;50.872;4.386;2023-04-29T09:23:42;20.00;99.90
14473;DHT22;7322;50.872;4.386;2023-04-29T09:26:10;20.00;99.90
14473;DHT22;7322;50.872;4.386;2023-04-29T09:28:38;20.10;99.90
14473;DHT22;7322;50.872;4.386;2023-04-29T09:31:08;20.00;99.90
14473;DHT22;7322;50.872;4.386;2023-04-29T09:33:56;20.00;99.90
14473;DHT22;7322;50.872;4.386;2023-04-29T09:36:37;20.10;99.90
14473;DHT22;7322;50.872;4.386;2023-04-29T09:39:06;20.10;99.90
14473;DHT22;7322;50.872;4.386;2023-04-29T09:41:38;20.10;99.90
14473;DHT22;7322;50.872;4.386;2023-04-29T09:44:05;20.10;99.90
14473;DHT22;7322;50.872;4.386;2023-04-29T09:46:33;20.10;99.90
14473;DHT22;7322;50.872;4.386;2023-04-29T09:49:03;20.10;99.90
14473;DHT22;7322;50.872;4.386;2023-04-29T09:51:30;20.10;99.90
14473;DHT22;7322;50.872;4.386;2023-04-29T09:53:59;20.10;99.90
14473;DHT22;7322;50.872;4.386;2023-04-29T09:56:27;20.10;99.90
14473;DHT22;7322;50.872;4.386;2023-04-29T09:58:55;20.20;99.90
14473;DHT22;7322;50.872;4.386;2023-04-29T10:01:33;20.20;99.90
14473;DHT22;7322;50.872;4.386;2023-04-29T10:04:03;20.20;99.90
14473;DHT22;7322;50.872;4.386;2023-04-29T10:06:32;20.20;99.90
14473;DHT22;7322;50.872;4.386;2023-04-29T10:08:59;20.20;99.90
14473;DHT22;7322;50.872;4.386;2023-04-29T10:11:26;20.20;99.90
14473;DHT22;7322;50.872;4.386;2023-04-29T10:13:54;20.30;99.90
14473;DHT22;7322;50.872;4.386;2023-04-29T10:16:27;20.30;99.90
14473;DHT22;7322;50.872;4.386;2023-04-29T10:18:55;20.30;99.90
14473;DHT22;7322;50.872;4.386;2023-04-29T10:21:28;20.30;99.90
14473;DHT22;7322;50.872;4.386;2023-04-29T10:23:59;20.30;99.90
14473;DHT22;7322;50.872;4.386;2023-04-29T10:26:28;20.30;99.90
14473;DHT22;7322;50.872;4.386;2023-04-29T10:28:57;20.30;99.90
14473;DHT22;7322;50.872;4.386;2023-04-29T10:31:25;20.30;99.90
14473;DHT22;7322;50.872;4.386;2023-04-29T10:33:55;20.30;99.90
14473;DHT22;7322;50.872;4.386;2023-04-29T10:36:23;20.30;99.90
14473;DHT22;7322;50.872;4.386;2023-04-29T10:38:57;20.30;99.90
14473;DHT22;7322;50.872;4.386;2023-04-29T10:41:27;20.30;99.90
14473;DHT22;7322;50.872;4.386;2023-04-29T10:43:58;20.30;99.90
14473;DHT22;7322;50.872;4.386;2023-04-29T10:46:25;20.20;99.90
14473;DHT22;7322;50.872;4.386;2023-04-29T10:48:56;20.20;99.90
14473;DHT22;7322;50.872;4.386;2023-04-29T10:51:30;20.30;99.90
14473;DHT22;7322;50.872;4.386;2023-04-29T10:54:00;20.20;99.90
14473;DHT22;7322;50.872;4.386;2023-04-29T10:56:38;20.20;99.90
14473;DHT22;7322;50.872;4.386;2023-04-29T10:59:06;20.20;99.90
14473;DHT22;7322;50.872;4.386;2023-04-29T11:01:46;20.20;99.90
14473;DHT22;7322;50.872;4.386;2023-04-29T11:04:15;20.30;99.90
14473;DHT22;7322;50.872;4.386;2023-04-29T11:06:45;20.20;99.90
14473;DHT22;7322;50.872;4.386;2023-04-29T11:09:20;20.30;99.90
14473;DHT22;7322;50.872;4.386;2023-04-29T11:11:58;20.30;99.90
14473;DHT22;7322;50.872;4.386;2023-04-29T11:14:30;20.20;99.90
14473;DHT22;7322;50.872;4.386;2023-04-29T11:16:58;20.20;99.90
14473;DHT22;7322;50.872;4.386;2023-04-29T11:19:30;20.20;99.90
14473;DHT22;7322;50.872;4.386;2023-04-29T11:22:08;20.20;99.90
14473;DHT22;7322;50.872;4.386;2023-04-29T11:24:48;20.20;99.90
14473;DHT22;7322;50.872;4.386;2023-04-29T11:27:15;20.20;99.90
14473;DHT22;7322;50.872;4.386;2023-04-29T11:29:44;20.20;99.90
14473;DHT22;7322;50.872;4.386;2023-04-29T11:32:11;20.20;99.90
14473;DHT22;7322;50.872;4.386;2023-04-29T11:34:38;20.20;99.90
14473;DHT22;7322;50.872;4.386;2023-04-29T11:37:05;20.30;99.90
14473;DHT22;7322;50.872;4.386;2023-04-29T11:39:33;20.30;99.90
14473;DHT22;7322;50.872;4.386;2023-04-29T11:42:05;20.30;99.90
14473;DHT22;7322;50.872;4.386;2023-04-29T11:44:33;20.40;99.90
14473;DHT22;7322;50.872;4.386;2023-04-29T11:47:01;20.30;99.90
14473;DHT22;7322;50.872;4.386;2023-04-29T11:49:29;20.40;99.90
14473;DHT22;7322;50.872;4.386;2023-04-29T11:51:57;20.30;99.90
14473;DHT22;7322;50.872;4.386;2023-04-29T11:54:25;20.30;99.90
14473;DHT22;7322;50.872;4.386;2023-04-29T11:56:52;20.30;99.90
14473;DHT22;7322;50.872;4.386;2023-04-29T11:59:21;20.30;99.90
14473;DHT22;7322;50.872;4.386;2023-04-29T12:01:48;20.30;99.90
14473;DHT22;7322;50.872;4.386;2023-04-29T12:04:15;20.30;99.90
14473;DHT22;7322;50.872;4.386;2023-04-29T12:06:43;20.30;99.90
14473;DHT22;7322;50.872;4.386;2023-04-29T12:09:11;20.30;99.90
14473;DHT22;7322;50.872;4.386;2023-04-29T12:11:40;20.30;99.90
14473;DHT22;7322;50.872;4.386;2023-04-29T12:14:07;20.30;99.90
14473;DHT22;7322;50.872;4.386;2023-04-29T12:16:36;20.30;99.90
14473;DHT22;7322;50.872;4.386;2023-04-29T12:19:03;20.30;99.90
14473;DHT22;7322;50.872;4.386;2023-04-29T12:21:32;20.30;99.90
14473;DHT22;7322;50.872;4.386;2023-04-29T12:24:01;20.40;99.90
14473;DHT22;7322;50.872;4.386;2023-04-29T12:26:29;20.40;99.90
14473;DHT22;7322;50.872;4.386;2023-04-29T12:28:58;20.40;99.90
14473;DHT22;7322;50.872;4.386;2023-04-29T12:31:32;20.40;99.90
14473;DHT22;7322;50.872;4.386;2023-04-29T12:34:02;20.50;99.90
14473;DHT22;7322;50.872;4.386;2023-04-29T12:36:30;20.50;99.90
14473;DHT22;7322;50.872;4.386;2023-04-29T12:39:09;20.50;99.90
14473;DHT22;7322;50.872;4.386;2023-04-29T12:41:38;20.60;99.90
14473;DHT22;7322;50.872;4.386;2023-04-29T12:44:05;20.50;99.90
14473;DHT22;7322;50.872;4.386;2023-04-29T12:46:36;20.50;99.90
14473;DHT22;7322;50.872;4.386;2023-04-29T12:49:05;20.50;99.90
14473;DHT22;7322;50.872;4.386;2023-04-29T12:51:33;20.50;99.90
14473;DHT22;7322;50.872;4.386;2023-04-29T12:54:02;20.50;99.90
14473;DHT22;7322;50.872;4.386;2023-04-29T12:56:30;20.50;99.90
14473;DHT22;7322;50.872;4.386;2023-04-29T12:59:04;20.50;99.90
14473;DHT22;7322;50.872;4.386;2023-04-29T13:01:32;20.60;99.90
14473;DHT22;7322;50.872;4.386;2023-04-29T13:03:58;20.50;99.90
14473;DHT22;7322;50.872;4.386;2023-04-29T13:06:27;20.50;99.90
14473;DHT22;7322;50.872;4.386;2023-04-29T13:08:54;20.60;99.90
14473;DHT22;7322;50.872;4.386;2023-04-29T13:11:22;20.60;99.90
14473;DHT22;7322;50.872;4.386;2023-04-29T13:13:49;20.50;99.90
14473;DHT22;7322;50.872;4.386;2023-04-29T13:16:16;20.60;99.90
14473;DHT22;7322;50.872;4.386;2023-04-29T13:18:44;20.50;99.90
14473;DHT22;7322;50.872;4.386;2023-04-29T13:21:11;20.50;99.90
14473;DHT22;7322;50.872;4.386;2023-04-29T13:23:39;20.50;99.90
14473;DHT22;7322;50.872;4.386;2023-04-29T13:26:06;20.50;99.90
14473;DHT22;7322;50.872;4.386;2023-04-29T13:28:33;20.50;99.90
14473;DHT22;7322;50.872;4.386;2023-04-29T13:31:00;20.50;99.90
14473;DHT22;7322;50.872;4.386;2023-04-29T13:33:27;20.50;99.90
14473;DHT22;7322;50.872;4.386;2023-04-29T13:35:54;20.50;99.90
14473;DHT22;7322;50.872;4.386;2023-04-29T13:38:21;20.50;99.90
14473;DHT22;7322;50.872;4.386;2023-04-29T13:40:50;20.40;99.90
14473;DHT22;7322;50.872;4.386;2023-04-29T13:43:17;20.50;99.90
14473;DHT22;7322;50.872;4.386;2023-04-29T13:45:44;20.40;99.90
14473;DHT22;7322;50.872;4.386;2023-04-29T13:48:11;20.40;99.90
14473;DHT22;7322;50.872;4.386;2023-04-29T13:50:38;20.40;99.90
14473;DHT22;7322;50.872;4.386;2023-04-29T13:53:07;20.40;99.90
14473;DHT22;7322;50.872;4.386;2023-04-29T13:55:34;20.40;99.90
14473;DHT22;7322;50.872;4.386;2023-04-29T13:58:02;20.40;99.90
14473;DHT22;7322;50.872;4.386;2023-04-29T14:00:29;20.40;99.90
14473;DHT22;7322;50.872;4.386;2023-04-29T14:02:56;20.40;99.90
14473;DHT22;7322;50.872;4.386;2023-04-29T14:05:24;20.50;99.90
14473;DHT22;7322;50.872;4.386;2023-04-29T14:07:51;20.50;99.90
14473;DHT22;7322;50.872;4.386;2023-04-29T14:10:18;20.50;99.90
14473;DHT22;7322;50.872;4.386;2023-04-29T14:12:45;20.50;99.90
14473;DHT22;7322;50.872;4.386;2023-04-29T14:15:14;20.50;99.90
14473;DHT22;7322;50.872;4.386;2023-04-29T14:17:41;20.50;99.90
14473;DHT22;7322;50.872;4.386;2023-04-29T14:20:09;20.60;99.90
14473;DHT22;7322;50.872;4.386;2023-04-29T14:22:36;20.60;99.90
14473;DHT22;7322;50.872;4.386;2023-04-29T14:25:03;20.60;99.90
14473;DHT22;7322;50.872;4.386;2023-04-29T14:27:31;20.60;99.90
14473;DHT22;7322;50.872;4.386;2023-04-29T14:29:59;20.60;99.90
14473;DHT22;7322;50.872;4.386;2023-04-29T14:32:27;20.60;99.90
14473;DHT22;7322;50.872;4.386;2023-04-29T14:34:54;20.70;99.90
14473;DHT22;7322;50.872;4.386;2023-04-29T14:37:21;20.70;99.90
14473;DHT22;7322;50.872;4.386;2023-04-29T14:40:11;20.70;99.90
14473;DHT22;7322;50.872;4.386;2023-04-29T14:42:46;20.70;99.90
14473;DHT22;7322;50.872;4.386;2023-04-29T14:45:16;20.70;99.90
14473;DHT22;7322;50.872;4.386;2023-04-29T14:47:56;20.70;99.90
14473;DHT22;7322;50.872;4.386;2023-04-29T14:50:23;20.70;99.90
14473;DHT22;7322;50.872;4.386;2023-04-29T14:52:50;20.70;99.90
14473;DHT22;7322;50.872;4.386;2023-04-29T14:55:17;20.70;99.90
14473;DHT22;7322;50.872;4.386;2023-04-29T14:57:44;20.70;99.90
14473;DHT22;7322;50.872;4.386;2023-04-29T15:00:29;20.70;99.90
14473;DHT22;7322;50.872;4.386;2023-04-29T15:03:15;20.70;99.90
14473;DHT22;7322;50.872;4.386;2023-04-29T15:05:44;20.70;99.90
14473;DHT22;7322;50.872;4.386;2023-04-29T15:08:11;20.70;99.90
14473;DHT22;7322;50.872;4.386;2023-04-29T15:10:40;20.70;99.90
14473;DHT22;7322;50.872;4.386;2023-04-29T15:13:07;20.70;99.90
14473;DHT22;7322;50.872;4.386;2023-04-29T15:15:35;20.70;99.90
14473;DHT22;7322;50.872;4.386;2023-04-29T15:18:04;20.70;99.90
14473;DHT22;7322;50.872;4.386;2023-04-29T15:20:53;20.70;99.90
14473;DHT22;7322;50.872;4.386;2023-04-29T15:23:20;20.70;99.90
14473;DHT22;7322;50.872;4.386;2023-04-29T15:25:47;20.70;99.90
14473;DHT22;7322;50.872;4.386;2023-04-29T15:28:14;20.70;99.90
14473;DHT22;7322;50.872;4.386;2023-04-29T15:30:41;20.70;99.90
14473;DHT22;7322;50.872;4.386;2023-04-29T15:33:16;20.70;99.90
14473;DHT22;7322;50.872;4.386;2023-04-29T15:35:43;20.70;99.90
14473;DHT22;7322;50.872;4.386;2023-04-29T15:38:12;20.70;99.90
14473;DHT22;7322;50.872;4.386;2023-04-29T15:40:39;20.60;99.90
14473;DHT22;7322;50.872;4.386;2023-04-29T15:43:06;20.60;99.90
14473;DHT22;7322;50.872;4.386;2023-04-29T15:45:33;20.60;99.90
14473;DHT22;7322;50.872;4.386;2023-04-29T15:54:58;20.60;99.90
14473;DHT22;7322;50.872;4.386;2023-04-29T15:57:25;20.60;99.90
14473;DHT22;7322;50.872;4.386;2023-04-29T15:59:59;20.50;99.90
14473;DHT22;7322;50.872;4.386;2023-04-29T16:02:26;20.60;99.90